createdAt,value
2023-03-12T17:15:52.800Z,13.29
2023-03-12T17:18:19.686Z,13.15
2023-03-12T17:20:47.687Z,13.19
2023-03-12T17:23:14.246Z,13.12
2023-03-12T17:25:42.972Z,13.34
2023-03-12T17:28:09.941Z,13.43
2023-03-12T17:30:37.293Z,13.55
2023-03-12T17:33:09.597Z,13.59
2023-03-12T17:35:36.238Z,13.50
2023-03-12T17:38:02.898Z,13.58
2023-03-12T17:40:29.871Z,13.61
2023-03-12T17:42:56.607Z,13.69
2023-03-12T17:45:24.449Z,13.90
2023-03-12T17:47:51.102Z,13.79
2023-03-12T17:50:18.236Z,13.88
2023-03-12T17:52:45.289Z,13.92
2023-03-12T17:55:12.064Z,13.74
2023-03-12T17:57:39.033Z,13.85
2023-03-12T18:00:15.166Z,13.79
2023-03-12T18:02:42.653Z,14.00
2023-03-12T18:05:11.273Z,13.86
2023-03-12T18:07:38.648Z,13.85
2023-03-12T18:10:09.054Z,13.77
2023-03-12T18:12:37.981Z,13.77
2023-03-12T18:15:09.161Z,13.67
2023-03-12T18:17:35.663Z,13.72
2023-03-12T18:20:08.249Z,13.66
2023-03-12T18:22:35.186Z,13.68
2023-03-12T18:25:01.920Z,13.81
2023-03-12T18:27:28.428Z,13.58
2023-03-12T18:29:54.861Z,13.54
2023-03-12T18:32:21.382Z,13.55
2023-03-12T18:34:48.124Z,13.70
2023-03-12T18:37:14.716Z,13.59
2023-03-12T18:39:41.223Z,13.70
2023-03-12T18:42:07.661Z,13.54
2023-03-12T18:44:34.097Z,13.73
2023-03-12T18:47:00.692Z,13.60
2023-03-12T18:49:27.412Z,13.55
2023-03-12T18:51:56.011Z,13.71
2023-03-12T18:54:24.733Z,13.67
2023-03-12T18:56:51.709Z,13.54
2023-03-12T18:59:18.255Z,13.75
2023-03-12T19:01:44.798Z,13.55
2023-03-12T19:04:15.583Z,13.46
2023-03-12T19:06:50.734Z,13.52
2023-03-12T19:09:18.602Z,13.61
2023-03-12T19:11:47.677Z,13.48
2023-03-12T19:14:14.348Z,13.82
2023-03-12T19:16:40.893Z,13.55
2023-03-12T19:19:07.468Z,13.52
2023-03-12T19:21:33.909Z,13.72
2023-03-12T19:24:00.465Z,13.57
2023-03-12T19:26:26.963Z,13.47
2023-03-12T19:28:53.536Z,13.39
2023-03-12T19:31:20.115Z,13.73
2023-03-12T19:33:46.660Z,13.50
2023-03-12T19:36:13.165Z,13.34
2023-03-12T19:38:39.875Z,13.37
2023-03-12T19:41:08.579Z,13.55
2023-03-12T19:43:36.227Z,13.60
2023-03-12T19:46:03.392Z,13.41
2023-03-12T19:48:29.918Z,13.57
2023-03-12T19:50:56.448Z,13.32
2023-03-12T19:53:23.102Z,13.67
2023-03-12T19:55:50.151Z,13.60
2023-03-12T19:58:17.350Z,13.43
2023-03-12T20:00:44.691Z,13.66
2023-03-12T20:03:11.263Z,13.78
2023-03-12T20:05:37.796Z,13.80
2023-03-12T20:08:04.307Z,13.55
2023-03-12T20:10:32.225Z,13.55
2023-03-12T20:12:58.723Z,13.71
2023-03-12T20:15:25.338Z,13.52
2023-03-12T20:17:54.653Z,13.73
2023-03-12T20:20:21.297Z,13.58
2023-03-12T20:22:47.795Z,13.81
2023-03-12T20:25:14.447Z,13.54
2023-03-12T20:27:40.944Z,13.77
2023-03-12T20:30:08.236Z,13.60
2023-03-12T20:32:34.809Z,13.77
2023-03-12T20:35:01.359Z,13.74
2023-03-12T20:37:27.837Z,13.80
2023-03-12T20:39:56.940Z,13.65
2023-03-12T20:42:23.475Z,13.90
2023-03-12T20:44:50.031Z,13.89
2023-03-12T20:47:16.516Z,13.75
2023-03-12T20:49:42.984Z,13.75
2023-03-12T20:52:09.417Z,13.99
2023-03-12T20:54:35.926Z,13.89
2023-03-12T20:57:02.469Z,13.82
2023-03-12T20:59:28.946Z,13.88
2023-03-12T21:01:55.579Z,14.03
2023-03-12T21:04:22.053Z,13.89
2023-03-12T21:06:51.565Z,14.14
2023-03-12T21:09:18.500Z,14.03
2023-03-12T21:11:45.009Z,13.93
2023-03-12T21:14:11.494Z,13.98
2023-03-12T21:16:37.990Z,13.59
2023-03-12T21:19:04.520Z,14.09
2023-03-12T21:21:31.951Z,14.21
2023-03-12T21:23:58.449Z,13.82
2023-03-12T21:26:24.928Z,13.96
2023-03-12T21:28:51.442Z,13.82
2023-03-12T21:31:18.414Z,13.97
2023-03-12T21:33:45.223Z,13.93
2023-03-12T21:36:13.437Z,13.85
2023-03-12T21:38:40.992Z,13.97
2023-03-12T21:41:09.730Z,13.63
2023-03-12T21:43:36.978Z,13.85
2023-03-12T21:46:08.160Z,13.74
2023-03-12T21:48:35.257Z,13.55
2023-03-12T21:51:07.453Z,13.84
2023-03-12T21:53:34.584Z,13.54
2023-03-12T21:56:02.255Z,13.73
2023-03-12T21:58:29.938Z,13.80
2023-03-12T22:01:05.679Z,13.67
2023-03-12T22:03:32.313Z,13.85
2023-03-12T22:05:58.802Z,13.82
2023-03-12T22:08:25.306Z,13.70
2023-03-12T22:10:51.992Z,13.47
2023-03-12T22:13:18.449Z,13.85
2023-03-12T22:15:57.000Z,13.78
2023-03-12T22:18:23.818Z,13.85
2023-03-12T22:20:51.857Z,13.70
2023-03-12T22:23:18.734Z,13.60
2023-03-12T22:25:45.330Z,13.67
2023-03-12T22:28:11.804Z,13.67
2023-03-12T22:30:38.377Z,13.86
2023-03-12T22:33:04.873Z,13.79
2023-03-12T22:35:31.357Z,13.79
2023-03-12T22:37:57.833Z,13.77
2023-03-12T22:40:25.405Z,13.80
2023-03-12T22:42:53.552Z,13.72
2023-03-12T22:45:20.043Z,13.66
2023-03-12T22:47:46.595Z,13.85
2023-03-12T22:50:13.178Z,13.80
2023-03-12T22:52:39.715Z,13.75
2023-03-12T22:55:06.677Z,13.92
2023-03-12T22:57:34.257Z,13.50
2023-03-12T23:00:00.809Z,13.81
2023-03-12T23:02:27.329Z,13.71
2023-03-12T23:04:53.920Z,13.95
2023-03-12T23:07:20.462Z,13.61
2023-03-12T23:09:47.279Z,13.75
2023-03-12T23:12:13.892Z,13.66
2023-03-12T23:14:40.377Z,13.86
2023-03-12T23:17:06.825Z,14.02
2023-03-12T23:19:34.010Z,13.78
2023-03-12T23:22:00.503Z,14.01
2023-03-12T23:24:29.206Z,13.96
2023-03-12T23:26:57.134Z,13.87
2023-03-12T23:29:23.655Z,13.71
2023-03-12T23:31:50.254Z,13.96
2023-03-12T23:34:16.784Z,13.75
2023-03-12T23:36:44.416Z,13.82
2023-03-12T23:39:10.891Z,13.82
2023-03-12T23:41:37.706Z,13.82
2023-03-12T23:44:04.442Z,14.10
2023-03-12T23:46:31.155Z,13.93
2023-03-12T23:48:58.184Z,13.83
2023-03-12T23:51:28.475Z,13.86
2023-03-12T23:54:01.023Z,13.79
2023-03-12T23:56:32.448Z,14.12
2023-03-12T23:58:59.040Z,13.99
